createdAt,value
2019-06-10T00:01:43.551Z,71.70
2019-06-10T00:04:13.859Z,71.90
2019-06-10T00:06:44.335Z,72.50
2019-06-10T00:09:14.617Z,72.60
2019-06-10T00:11:45.335Z,73.00
2019-06-10T00:14:15.803Z,73.30
2019-06-10T00:16:46.244Z,73.70
2019-06-10T00:19:16.572Z,74.00
2019-06-10T00:21:50.716Z,73.90
2019-06-10T00:24:21.129Z,74.20
2019-06-10T00:26:53.014Z,73.90
2019-06-10T00:29:23.687Z,73.60
2019-06-10T00:31:54.082Z,73.50
2019-06-10T00:34:24.455Z,73.40
2019-06-10T00:36:54.827Z,73.60
2019-06-10T00:39:25.169Z,73.70
2019-06-10T00:41:55.601Z,73.80
2019-06-10T00:44:26.032Z,74.00
2019-06-10T00:46:56.277Z,74.30
2019-06-10T00:49:26.664Z,74.40
2019-06-10T00:51:56.967Z,74.60
2019-06-10T00:54:27.335Z,74.60
2019-06-10T00:56:57.806Z,74.70
2019-06-10T00:59:28.267Z,74.90
2019-06-10T01:02:01.237Z,74.90
2019-06-10T01:04:31.916Z,74.90
2019-06-10T01:07:02.535Z,74.80
2019-06-10T01:09:32.944Z,74.70
2019-06-10T01:12:03.249Z,74.50
2019-06-10T01:14:33.921Z,74.50
2019-06-10T01:17:05.426Z,74.30
2019-06-10T01:19:36.004Z,74.30
2019-06-10T01:22:06.361Z,74.30
2019-06-10T01:24:36.736Z,74.30
2019-06-10T01:27:07.542Z,74.10
2019-06-10T01:29:37.969Z,73.90
2019-06-10T01:32:09.751Z,74.50
2019-06-10T01:34:41.676Z,74.00
2019-06-10T01:37:14.349Z,74.10
2019-06-10T01:39:44.121Z,74.60
2019-06-10T01:42:15.867Z,74.60
2019-06-10T01:44:46.566Z,74.50
2019-06-10T01:47:17.556Z,74.90
2019-06-10T01:49:48.100Z,75.50
2019-06-10T01:52:21.193Z,75.60
2019-06-10T01:54:52.522Z,76.00
2019-06-10T01:57:22.908Z,76.00
2019-06-10T01:59:53.348Z,76.50
2019-06-10T02:02:25.055Z,76.60
2019-06-10T02:04:55.469Z,77.10
2019-06-10T02:07:25.833Z,77.60
2019-06-10T02:09:56.215Z,77.90
2019-06-10T02:12:26.679Z,79.50
2019-06-10T02:14:56.966Z,79.60
2019-06-10T02:17:27.311Z,80.10
2019-06-10T02:19:57.718Z,80.50
2019-06-10T02:22:28.060Z,80.80
2019-06-10T02:24:58.492Z,80.80
2019-06-10T02:27:28.811Z,80.90
2019-06-10T02:30:01.556Z,80.70
2019-06-10T02:32:37.148Z,80.90
2019-06-10T02:35:13.129Z,81.30
2019-06-10T02:37:38.060Z,81.70
2019-06-10T02:40:08.132Z,82.50
2019-06-10T02:42:43.690Z,83.00
2019-06-10T02:45:18.322Z,83.00
2019-06-10T02:47:46.179Z,83.20
2019-06-10T02:50:23.294Z,83.30
2019-06-10T02:52:53.063Z,83.20
2019-06-10T02:55:30.282Z,83.10
2019-06-10T02:57:55.683Z,82.80
2019-06-10T03:00:37.124Z,82.30
2019-06-10T03:02:58.216Z,81.90
2019-06-10T03:05:39.315Z,81.80
2019-06-10T03:08:03.692Z,81.60
2019-06-10T03:10:36.775Z,80.80
2019-06-10T03:13:04.711Z,80.20
2019-06-10T03:15:36.945Z,79.50
2019-06-10T03:18:07.263Z,78.60
2019-06-10T03:20:38.698Z,78.40
2019-06-10T03:23:09.031Z,77.70
2019-06-10T03:25:39.410Z,77.20
2019-06-10T03:28:11.973Z,76.80
2019-06-10T03:30:53.319Z,76.90
2019-06-10T03:33:13.874Z,76.80
2019-06-10T03:35:44.502Z,76.80
2019-06-10T03:38:14.787Z,76.90
2019-06-10T03:40:46.451Z,77.00
2019-06-10T03:43:16.847Z,76.60
2019-06-10T03:45:47.299Z,75.90
2019-06-10T03:48:19.102Z,75.80
2019-06-10T03:50:49.427Z,75.00
2019-06-10T03:53:19.755Z,75.00
2019-06-10T03:55:52.531Z,74.90
2019-06-10T03:58:24.641Z,75.00
2019-06-10T04:00:54.039Z,75.10
2019-06-10T04:03:27.481Z,75.30
2019-06-10T04:05:56.474Z,75.60
2019-06-10T04:08:28.015Z,75.40
2019-06-10T04:10:58.363Z,75.20
2019-06-10T04:13:28.725Z,75.30
2019-06-10T04:15:59.111Z,76.00
2019-06-10T04:18:29.539Z,74.90
2019-06-10T04:21:02.306Z,74.50
2019-06-10T04:23:33.450Z,73.50
2019-06-10T04:26:04.009Z,72.50
2019-06-10T04:28:34.337Z,72.40
2019-06-10T04:31:04.798Z,72.40
2019-06-10T04:33:35.620Z,72.40
2019-06-10T04:36:07.007Z,72.20
2019-06-10T04:38:37.335Z,72.10
2019-06-10T04:41:07.777Z,72.20
2019-06-10T04:43:43.083Z,72.50
2019-06-10T04:46:12.995Z,72.30
2019-06-10T04:48:43.401Z,72.60
2019-06-10T04:51:13.928Z,72.70
2019-06-10T04:53:44.354Z,72.90
2019-06-10T04:56:14.787Z,72.50
2019-06-10T04:58:45.159Z,73.20
2019-06-10T05:01:15.559Z,73.50
2019-06-10T05:03:45.940Z,73.50
2019-06-10T05:06:16.391Z,74.40
2019-06-10T05:08:47.635Z,73.30
2019-06-10T05:11:19.074Z,73.10
2019-06-10T05:13:49.510Z,72.90
2019-06-10T05:16:19.918Z,72.40
2019-06-10T05:18:54.082Z,72.60
2019-06-10T05:21:25.054Z,72.20
2019-06-10T05:23:54.200Z,72.20
2019-06-10T05:26:26.012Z,72.50
2019-06-10T05:28:56.496Z,71.40
2019-06-10T05:31:28.648Z,70.90
2019-06-10T05:33:58.888Z,70.10
2019-06-10T05:36:31.065Z,69.70
2019-06-10T05:39:02.714Z,68.40
2019-06-10T05:41:35.232Z,68.10
2019-06-10T05:44:05.749Z,67.60
2019-06-10T05:46:36.103Z,67.20
2019-06-10T05:49:06.507Z,66.40
2019-06-10T05:51:36.813Z,65.80
2019-06-10T05:54:07.053Z,65.80
2019-06-10T05:56:37.443Z,65.30
2019-06-10T05:59:07.843Z,63.90
2019-06-10T06:01:38.694Z,62.70
2019-06-10T06:04:09.299Z,62.90
2019-06-10T06:06:41.705Z,62.10
2019-06-10T06:09:12.961Z,62.20
2019-06-10T06:11:43.789Z,62.20
2019-06-10T06:14:14.157Z,61.90
2019-06-10T06:16:44.575Z,61.70
2019-06-10T06:19:16.824Z,61.10
2019-06-10T06:21:47.889Z,60.80
2019-06-10T06:24:18.414Z,60.40
2019-06-10T06:26:50.077Z,59.30
2019-06-10T06:29:22.232Z,59.50
2019-06-10T06:31:52.520Z,59.50
2019-06-10T06:34:22.877Z,59.70
2019-06-10T06:36:53.227Z,59.50
2019-06-10T06:39:24.300Z,58.70
2019-06-10T06:41:54.852Z,58.60
2019-06-10T06:44:25.230Z,59.40
2019-06-10T06:46:56.800Z,60.20
2019-06-10T06:49:27.852Z,60.60
2019-06-10T06:51:59.337Z,59.90
2019-06-10T06:54:30.503Z,59.50
2019-06-10T06:57:03.481Z,59.00
2019-06-10T06:59:34.253Z,59.10
2019-06-10T07:02:05.779Z,58.90
2019-06-10T07:04:37.453Z,59.10
2019-06-10T07:07:08.228Z,59.00
2019-06-10T07:09:40.622Z,58.60
2019-06-10T07:12:13.043Z,58.60
2019-06-10T07:14:45.957Z,58.20
2019-06-10T07:17:16.402Z,58.00
2019-06-10T07:19:46.809Z,58.30
2019-06-10T07:22:17.153Z,58.20
2019-06-10T07:24:47.885Z,59.30
2019-06-10T07:27:18.473Z,59.70
2019-06-10T07:29:49.153Z,59.70
2019-06-10T07:32:19.546Z,59.10
2019-06-10T07:34:52.312Z,59.00
2019-06-10T07:37:23.185Z,58.90
2019-06-10T07:39:54.002Z,59.50
2019-06-10T07:42:24.324Z,59.30
2019-06-10T07:44:54.732Z,59.30
2019-06-10T07:47:25.147Z,59.30
2019-06-10T07:49:56.744Z,59.00
2019-06-10T07:52:28.735Z,58.20
2019-06-10T07:54:59.134Z,57.90
2019-06-10T07:57:29.493Z,57.60
2019-06-10T07:59:59.902Z,57.30
2019-06-10T08:02:32.280Z,57.50
2019-06-10T08:05:03.693Z,57.60
2019-06-10T08:07:35.238Z,56.70
2019-06-10T08:10:06.455Z,56.20
2019-06-10T08:12:37.123Z,56.10
2019-06-10T08:15:09.303Z,56.30
2019-06-10T08:17:40.430Z,56.50
2019-06-10T08:20:13.527Z,56.10
2019-06-10T08:22:50.895Z,56.00
2019-06-10T08:25:16.017Z,56.00
2019-06-10T08:27:47.878Z,55.80
2019-06-10T08:30:23.941Z,55.50
2019-06-10T08:32:54.089Z,55.90
2019-06-10T08:35:37.953Z,56.30
2019-06-10T08:37:55.546Z,56.90
2019-06-10T08:40:25.887Z,56.90
2019-06-10T08:42:56.229Z,56.60
2019-06-10T08:45:26.566Z,56.70
2019-06-10T08:47:56.909Z,55.50
2019-06-10T08:50:27.276Z,55.10
2019-06-10T08:53:12.788Z,54.90
2019-06-10T08:55:29.656Z,55.10
2019-06-10T08:58:02.563Z,55.20
2019-06-10T09:00:33.722Z,55.00
2019-06-10T09:03:05.071Z,55.20
2019-06-10T09:05:35.445Z,55.90
2019-06-10T09:08:05.720Z,55.70
2019-06-10T09:10:36.076Z,55.00
2019-06-10T09:13:06.474Z,54.80
2019-06-10T09:15:36.862Z,54.70
2019-06-10T09:18:08.701Z,55.20
2019-06-10T09:20:39.386Z,54.50
2019-06-10T09:23:19.231Z,55.50
2019-06-10T09:25:47.670Z,56.40
2019-06-10T09:28:14.798Z,56.00
2019-06-10T09:30:50.463Z,56.40
2019-06-10T09:33:17.091Z,57.40
2019-06-10T09:35:50.348Z,56.80
2019-06-10T09:38:19.428Z,57.50
2019-06-10T09:41:01.391Z,57.80
2019-06-10T09:43:25.963Z,58.50
2019-06-10T09:45:56.913Z,58.50
2019-06-10T09:48:29.091Z,60.00
2019-06-10T09:50:59.504Z,60.10
2019-06-10T09:53:38.913Z,60.90
2019-06-10T09:56:04.139Z,59.80
2019-06-10T09:58:33.753Z,59.70
2019-06-10T10:01:04.810Z,60.40
2019-06-10T10:03:35.513Z,62.20
2019-06-10T10:06:14.544Z,62.20
2019-06-10T10:08:38.203Z,61.60
2019-06-10T10:11:08.630Z,60.60
2019-06-10T10:13:39.178Z,62.10
2019-06-10T10:16:10.063Z,61.90
2019-06-10T10:18:42.231Z,60.80
2019-06-10T10:21:13.086Z,59.70
2019-06-10T10:23:56.545Z,59.80
2019-06-10T10:26:15.692Z,59.20
2019-06-10T10:28:47.947Z,59.10
2019-06-10T10:31:18.074Z,59.10
2019-06-10T10:33:48.528Z,59.30
2019-06-10T10:36:19.042Z,61.00
2019-06-10T10:38:50.758Z,61.40
2019-06-10T10:41:23.982Z,61.20
2019-06-10T10:43:58.140Z,60.20
2019-06-10T10:46:25.509Z,60.10
2019-06-10T10:48:56.597Z,60.80
2019-06-10T10:51:28.381Z,59.40
2019-06-10T10:54:28.427Z,59.20
2019-06-10T10:56:30.724Z,58.90
2019-06-10T10:59:02.178Z,58.60
2019-06-10T11:01:33.358Z,58.20
2019-06-10T11:04:05.489Z,58.80
2019-06-10T11:06:35.838Z,58.90
2019-06-10T11:09:09.679Z,58.70
2019-06-10T11:11:44.009Z,59.80
2019-06-10T11:14:15.680Z,59.30
2019-06-10T11:16:47.173Z,59.30
2019-06-10T11:19:17.825Z,60.40
2019-06-10T11:21:49.447Z,62.20
2019-06-10T11:24:33.581Z,61.70
2019-06-10T11:26:55.196Z,62.00
2019-06-10T11:29:24.048Z,62.50
2019-06-10T11:31:56.643Z,61.80
2019-06-10T11:34:26.538Z,61.40
2019-06-10T11:36:58.181Z,62.30
2019-06-10T11:39:28.868Z,64.10
2019-06-10T11:41:59.209Z,64.00
2019-06-10T11:44:30.072Z,62.70
2019-06-10T11:47:03.034Z,61.70
2019-06-10T11:49:32.604Z,61.00
2019-06-10T11:52:03.325Z,60.40
2019-06-10T11:54:47.835Z,62.20
2019-06-10T11:57:05.908Z,62.00
2019-06-10T11:59:36.306Z,61.30
2019-06-10T12:02:06.728Z,61.60
2019-06-10T12:04:37.108Z,62.40
2019-06-10T12:07:07.458Z,62.70
2019-06-10T12:09:38.027Z,61.90
2019-06-10T12:12:08.721Z,62.80
2019-06-10T12:14:39.288Z,63.20
2019-06-10T12:17:24.975Z,62.80
2019-06-10T12:19:43.356Z,62.60
2019-06-10T12:22:13.570Z,63.90
2019-06-10T12:24:44.145Z,63.90
2019-06-10T12:27:14.576Z,63.60
2019-06-10T12:29:45.024Z,63.70
2019-06-10T12:32:15.414Z,63.80
2019-06-10T12:34:46.386Z,64.10
2019-06-10T12:37:17.128Z,63.40
2019-06-10T12:39:47.488Z,63.40
2019-06-10T12:42:17.872Z,64.30
2019-06-10T12:44:48.514Z,64.40
2019-06-10T12:47:19.273Z,63.80
2019-06-10T12:49:51.999Z,63.70
2019-06-10T12:52:22.945Z,63.90
2019-06-10T12:54:53.486Z,64.60
2019-06-10T12:57:23.885Z,64.20
2019-06-10T12:59:54.260Z,64.20
2019-06-10T13:02:31.298Z,64.20
2019-06-10T13:04:59.506Z,64.50
2019-06-10T13:07:32.514Z,65.00
2019-06-10T13:10:04.122Z,65.00
2019-06-10T13:12:34.533Z,66.10
2019-06-10T13:15:08.443Z,66.00
2019-06-10T13:17:38.167Z,66.30
2019-06-10T13:20:09.623Z,65.90
2019-06-10T13:22:43.033Z,66.20
2019-06-10T13:25:13.480Z,66.50
2019-06-10T13:27:43.880Z,66.30
2019-06-10T13:30:14.896Z,66.60
2019-06-10T13:32:45.730Z,66.70
2019-06-10T13:35:16.506Z,67.00
2019-06-10T13:37:46.880Z,67.70
2019-06-10T13:40:17.594Z,68.10
2019-06-10T13:42:47.908Z,68.10
2019-06-10T13:45:18.597Z,69.50
2019-06-10T13:47:49.028Z,68.60
2019-06-10T13:50:22.111Z,68.90
2019-06-10T13:52:53.466Z,68.30
2019-06-10T13:55:23.906Z,68.40
2019-06-10T13:57:54.204Z,68.50
2019-06-10T14:00:40.375Z,68.40
2019-06-10T14:02:56.631Z,68.00
2019-06-10T14:05:26.984Z,68.10
2019-06-10T14:07:57.288Z,67.90
2019-06-10T14:10:27.732Z,67.80
2019-06-10T14:12:58.116Z,67.30
2019-06-10T14:15:29.116Z,67.60
2019-06-10T14:17:59.477Z,67.40
2019-06-10T14:20:32.358Z,66.80
2019-06-10T14:23:02.633Z,66.60
2019-06-10T14:25:33.914Z,67.10
2019-06-10T14:28:07.699Z,67.20
2019-06-10T14:30:36.315Z,67.60
2019-06-10T14:33:07.440Z,68.00
2019-06-10T14:35:37.931Z,68.10
2019-06-10T14:38:08.313Z,68.40
2019-06-10T14:40:38.672Z,68.40
2019-06-10T14:43:10.274Z,68.10
2019-06-10T14:45:42.405Z,67.80
2019-06-10T14:48:15.638Z,68.30
2019-06-10T14:50:44.849Z,68.60
2019-06-10T14:53:16.788Z,68.60
2019-06-10T14:55:47.132Z,68.50
2019-06-10T14:58:19.416Z,68.10
2019-06-10T15:00:53.773Z,68.10
2019-06-10T15:03:22.992Z,68.30
2019-06-10T15:05:53.443Z,68.50
2019-06-10T15:08:23.813Z,68.60
2019-06-10T15:10:54.211Z,68.60
2019-06-10T15:13:24.543Z,67.90
2019-06-10T15:15:56.175Z,68.00
2019-06-10T15:18:26.452Z,68.10
2019-06-10T15:20:57.000Z,68.00
2019-06-10T15:23:27.450Z,67.90
2019-06-10T15:25:58.833Z,68.20
2019-06-10T15:28:29.227Z,68.30
2019-06-10T15:30:59.605Z,68.10
2019-06-10T15:33:32.403Z,68.40
2019-06-10T15:36:02.295Z,68.50
2019-06-10T15:38:33.240Z,69.00
2019-06-10T15:41:03.659Z,69.00
2019-06-10T15:43:33.990Z,69.20
2019-06-10T15:46:04.311Z,69.10
2019-06-10T15:48:34.700Z,69.10
2019-06-10T15:51:05.118Z,69.10
2019-06-10T15:53:35.483Z,69.20
2019-06-10T15:56:14.455Z,69.30
2019-06-10T15:58:37.907Z,69.00
2019-06-10T16:01:08.300Z,68.50
2019-06-10T16:03:38.723Z,68.50
2019-06-10T16:06:09.117Z,68.70
2019-06-10T16:08:39.412Z,68.70
2019-06-10T16:11:09.794Z,68.60
2019-06-10T16:13:42.854Z,68.90
2019-06-10T16:16:12.799Z,69.00
2019-06-10T16:18:43.476Z,68.90
2019-06-10T16:21:15.614Z,69.10
2019-06-10T16:23:46.205Z,69.20
2019-06-10T16:26:17.967Z,70.20
2019-06-10T16:28:48.694Z,69.50
2019-06-10T16:31:20.357Z,69.60
2019-06-10T16:33:52.724Z,69.90
2019-06-10T16:36:25.781Z,70.00
2019-06-10T16:38:55.016Z,70.20
2019-06-10T16:41:27.797Z,70.00
2019-06-10T16:43:57.328Z,69.80
2019-06-10T16:46:28.956Z,69.90
2019-06-10T16:48:59.415Z,70.30
2019-06-10T16:51:29.963Z,70.40
2019-06-10T16:54:02.293Z,70.50
2019-06-10T16:56:33.590Z,70.80
2019-06-10T16:59:04.325Z,71.10
2019-06-10T17:01:34.636Z,72.10
2019-06-10T17:04:06.234Z,71.20
2019-06-10T17:06:36.637Z,71.30
2019-06-10T17:09:08.066Z,71.50
2019-06-10T17:11:38.431Z,71.60
2019-06-10T17:14:13.530Z,71.70
2019-06-10T17:16:43.931Z,72.00
2019-06-10T17:19:14.435Z,72.00
2019-06-10T17:21:44.945Z,72.20
2019-06-10T17:24:15.308Z,72.30
2019-06-10T17:26:45.683Z,72.40
2019-06-10T17:29:16.256Z,72.30
2019-06-10T17:31:46.599Z,72.30
2019-06-10T17:34:20.543Z,72.40
2019-06-10T17:36:51.067Z,72.50
2019-06-10T17:39:23.823Z,72.70
2019-06-10T17:41:53.459Z,72.80
2019-06-10T17:44:27.372Z,73.10
2019-06-10T17:46:55.776Z,73.10
2019-06-10T17:49:27.409Z,73.40
2019-06-10T17:51:58.150Z,73.70
2019-06-10T17:54:28.456Z,73.80
2019-06-10T17:56:58.832Z,74.10
2019-06-10T17:59:29.243Z,74.50
2019-06-10T18:01:59.613Z,74.50
2019-06-10T18:04:29.960Z,74.90
2019-06-10T18:07:02.298Z,75.10
2019-06-10T18:09:35.437Z,75.50
2019-06-10T18:12:04.248Z,75.40
2019-06-10T18:14:36.325Z,75.70
2019-06-10T18:17:07.185Z,76.00
2019-06-10T18:19:37.632Z,76.00
2019-06-10T18:22:08.045Z,76.10
2019-06-10T18:24:38.607Z,76.60
2019-06-10T18:27:08.919Z,76.70
2019-06-10T18:29:39.330Z,76.90
2019-06-10T18:32:12.249Z,77.10
2019-06-10T18:34:42.634Z,77.30
2019-06-10T18:37:13.187Z,77.60
2019-06-10T18:39:43.572Z,77.80
2019-06-10T18:42:13.957Z,78.00
2019-06-10T18:44:44.352Z,78.20
2019-06-10T18:47:14.789Z,78.60
2019-06-10T18:49:45.277Z,78.60
2019-06-10T18:52:15.671Z,78.70
2019-06-10T18:54:46.159Z,78.90
2019-06-10T18:57:16.529Z,79.00
2019-06-10T18:59:46.898Z,79.40
2019-06-10T19:02:17.979Z,79.50
2019-06-10T19:04:48.472Z,79.60
2019-06-10T19:07:18.812Z,80.00
2019-06-10T19:09:49.243Z,80.20
2019-06-10T19:12:22.420Z,80.50
2019-06-10T19:14:52.468Z,80.70
2019-06-10T19:17:23.294Z,80.80
2019-06-10T19:19:53.695Z,81.00
2019-06-10T19:22:24.054Z,81.40
2019-06-10T19:24:54.432Z,81.50
2019-06-10T19:27:24.847Z,81.90
2019-06-10T19:29:56.259Z,82.20
2019-06-10T19:32:27.534Z,82.40
2019-06-10T19:34:57.923Z,82.70
2019-06-10T19:37:28.317Z,83.00
2019-06-10T19:39:58.695Z,83.20
2019-06-10T19:42:29.143Z,83.60
2019-06-10T19:44:59.795Z,83.90
2019-06-10T19:47:32.641Z,84.10
2019-06-10T19:50:02.984Z,84.80
2019-06-10T19:52:35.227Z,85.20
2019-06-10T19:55:07.302Z,85.20
2019-06-10T19:57:37.707Z,85.90
2019-06-10T20:00:12.525Z,86.30
2019-06-10T20:02:44.507Z,86.70
2019-06-10T20:05:14.694Z,87.10
2019-06-10T20:07:50.278Z,87.50
2019-06-10T20:10:17.617Z,87.90
2019-06-10T20:12:48.001Z,88.70
2019-06-10T20:15:22.986Z,89.00
2019-06-10T20:17:54.437Z,89.90
2019-06-10T20:20:24.881Z,90.00
2019-06-10T20:22:57.534Z,90.30
2019-06-10T20:25:27.629Z,90.40
2019-06-10T20:30:38.813Z,90.70
2019-06-10T20:33:09.408Z,91.30
2019-06-10T20:35:40.757Z,91.80
2019-06-10T20:38:13.282Z,91.90
2019-06-10T20:40:45.656Z,92.30
2019-06-10T20:43:15.877Z,92.60
2019-06-10T20:45:47.918Z,93.10
2019-06-10T20:48:18.263Z,93.40
2019-06-10T20:50:50.088Z,93.70
2019-06-10T20:53:20.735Z,94.00
2019-06-10T20:55:57.355Z,94.50
2019-06-10T20:58:23.407Z,94.90
2019-06-10T21:00:56.975Z,95.40
2019-06-10T21:03:25.837Z,95.90
2019-06-10T21:05:59.611Z,96.40
2019-06-10T21:08:33.187Z,96.70
2019-06-10T21:11:03.548Z,97.50
2019-06-10T21:13:33.951Z,97.80
2019-06-10T21:16:04.303Z,98.00
2019-06-10T21:18:34.718Z,98.90
2019-06-10T21:21:05.083Z,99.10
2019-06-10T21:23:35.457Z,99.60
2019-06-10T21:26:05.845Z,99.90
2019-06-10T21:28:36.285Z,99.90
2019-06-10T21:31:06.633Z,99.90
2019-06-10T21:33:37.033Z,99.90
2019-06-10T21:36:07.371Z,99.90
2019-06-10T21:38:37.783Z,99.90
2019-06-10T21:41:08.171Z,99.90
2019-06-10T21:43:41.526Z,99.90
2019-06-10T21:46:13.030Z,99.90
2019-06-10T21:48:44.467Z,99.90
2019-06-10T21:51:14.859Z,99.90
2019-06-10T21:53:46.517Z,99.90
2019-06-10T21:56:17.181Z,99.90
2019-06-10T21:58:48.893Z,99.90
2019-06-10T22:01:19.469Z,99.90
2019-06-10T22:03:57.546Z,99.90
2019-06-10T22:06:22.837Z,99.90
2019-06-10T22:08:56.363Z,99.90
2019-06-10T22:11:25.736Z,99.90
2019-06-10T22:13:56.424Z,99.90
2019-06-10T22:16:26.964Z,99.90
2019-06-10T22:18:57.359Z,99.90
2019-06-10T22:21:27.728Z,99.90
2019-06-10T22:23:58.147Z,99.90
2019-06-10T22:26:28.493Z,99.90
2019-06-10T22:28:58.867Z,99.90
2019-06-10T22:31:29.357Z,99.90
2019-06-10T22:33:59.749Z,99.90
2019-06-10T22:36:32.558Z,99.90
2019-06-10T22:39:03.219Z,99.90
2019-06-10T22:41:35.638Z,99.90
2019-06-10T22:44:06.103Z,99.90
2019-06-10T22:46:36.431Z,99.90
2019-06-10T22:49:06.870Z,99.90
2019-06-10T22:51:37.165Z,99.90
2019-06-10T22:54:07.509Z,99.90
2019-06-10T22:56:37.882Z,99.90
2019-06-10T22:59:10.358Z,99.90
2019-06-10T23:01:42.381Z,99.90
2019-06-10T23:04:13.445Z,99.90
2019-06-10T23:06:44.327Z,99.90
2019-06-10T23:09:14.755Z,99.90
2019-06-10T23:11:45.145Z,99.90
2019-06-10T23:14:15.564Z,99.90
2019-06-10T23:16:47.115Z,99.90
2019-06-10T23:19:17.483Z,99.90
2019-06-10T23:21:49.135Z,99.90
2019-06-10T23:24:19.563Z,99.90
2019-06-10T23:26:49.951Z,99.90
2019-06-10T23:29:22.644Z,99.90
2019-06-10T23:31:58.947Z,99.90
2019-06-10T23:34:24.315Z,99.90
2019-06-10T23:36:56.640Z,99.90
2019-06-10T23:39:26.823Z,99.90
2019-06-10T23:41:58.321Z,99.90
2019-06-10T23:44:29.166Z,99.90
2019-06-10T23:47:02.119Z,99.90
2019-06-10T23:49:32.325Z,99.90
2019-06-10T23:52:05.009Z,99.90
2019-06-10T23:54:34.812Z,99.90
2019-06-10T23:57:06.403Z,99.90
2019-06-10T23:59:37.263Z,99.90
